Time;durP1;ratioP1;P1;durP2;ratioP2;P2;SDS_P1;SDS_P2;PMS_P1;PMS_P2;Temp;Humidity;BMP_temperature;BMP_pressure;BME280_temperature;BME280_humidity;BME280_pressure;Samples;Min_cycle;Max_cycle;Signal;HPM_P1;HPM_P2
2023/01/02 00:01:53;;;;;;;18.58;9.82;;;12.50;99.90;;;;;;5055043;28;20227;-78
2023/01/02 00:04:42;;;;;;;17.60;10.00;;;12.40;99.90;;;;;;5037784;28;20220;-78
2023/01/02 00:07:31;;;;;;;18.83;9.80;;;12.40;99.90;;;;;;5052878;28;20320;-79
2023/01/02 00:10:19;;;;;;;20.42;10.95;;;12.40;99.90;;;;;;5061896;28;20304;-79
2023/01/02 00:13:08;;;;;;;19.05;9.60;;;12.50;99.90;;;;;;5060810;28;20309;-78
2023/01/02 00:15:57;;;;;;;19.85;10.07;;;12.40;99.90;;;;;;5048049;28;20224;-77
2023/01/02 00:18:47;;;;;;;17.55;9.70;;;12.40;99.90;;;;;;5048570;28;20228;-77
2023/01/02 00:21:35;;;;;;;14.18;9.75;;;12.30;99.90;;;;;;5061659;28;20413;-77
2023/01/02 00:24:24;;;;;;;17.13;10.15;;;12.40;99.90;;;;;;5055604;28;20228;-77
2023/01/02 00:27:14;;;;;;;21.67;10.23;;;12.30;99.90;;;;;;5059091;28;20269;-77
2023/01/02 00:30:02;;;;;;;18.45;10.00;;;12.30;99.90;;;;;;5056099;28;20571;-77
2023/01/02 00:32:51;;;;;;;17.63;10.00;;;12.30;99.90;;;;;;5061517;28;20212;-79
2023/01/02 00:35:41;;;;;;;17.13;9.65;;;12.30;99.90;;;;;;5058655;28;20228;-77
2023/01/02 00:38:30;;;;;;;17.55;9.63;;;12.40;99.90;;;;;;5058527;28;20224;-78
2023/01/02 00:41:20;;;;;;;17.33;10.23;;;12.30;99.90;;;;;;5061701;28;20228;-79
2023/01/02 00:44:08;;;;;;;19.88;9.63;;;12.30;99.90;;;;;;5055255;28;20221;-78
2023/01/02 00:46:57;;;;;;;19.30;10.55;;;12.30;99.90;;;;;;5055570;28;20575;-79
2023/01/02 00:49:46;;;;;;;16.55;9.73;;;12.40;99.90;;;;;;5059887;28;20303;-78
2023/01/02 00:52:36;;;;;;;17.92;10.20;;;12.40;99.90;;;;;;5062420;28;20230;-77
2023/01/02 00:55:25;;;;;;;19.15;9.98;;;12.40;99.90;;;;;;5076447;28;20223;-77
2023/01/02 00:58:14;;;;;;;18.10;9.85;;;12.30;99.90;;;;;;5080867;28;20626;-77
2023/01/02 01:01:03;;;;;;;18.10;10.38;;;12.30;99.90;;;;;;5074455;28;20617;-78
2023/01/02 01:03:51;;;;;;;16.05;10.15;;;12.30;99.90;;;;;;5058464;28;20266;-77
2023/01/02 01:06:40;;;;;;;17.33;10.02;;;12.30;99.90;;;;;;5066936;28;20219;-77
2023/01/02 01:09:30;;;;;;;15.95;9.30;;;12.40;99.90;;;;;;5077203;28;20235;-77
2023/01/02 01:12:19;;;;;;;18.58;10.57;;;12.30;99.90;;;;;;5077583;28;20227;-77
2023/01/02 01:15:08;;;;;;;17.50;10.52;;;12.30;99.90;;;;;;5082658;28;20219;-77
2023/01/02 01:17:57;;;;;;;18.60;9.93;;;12.30;99.90;;;;;;5077842;28;20222;-77
2023/01/02 01:20:46;;;;;;;15.55;10.02;;;12.40;99.90;;;;;;5071145;28;20228;-78
2023/01/02 01:23:34;;;;;;;17.90;10.32;;;12.40;99.90;;;;;;5075842;28;20227;-76
2023/01/02 01:26:25;;;;;;;17.00;9.57;;;12.30;99.90;;;;;;5074178;28;20368;-77
2023/01/02 01:29:13;;;;;;;18.20;10.55;;;12.40;99.90;;;;;;5069588;28;20220;-77
2023/01/02 01:32:02;;;;;;;18.45;10.45;;;12.30;99.90;;;;;;5068548;28;20227;-77
2023/01/02 01:34:51;;;;;;;16.90;10.10;;;12.20;99.90;;;;;;5081301;28;20220;-77
2023/01/02 01:37:40;;;;;;;19.20;10.30;;;12.20;99.90;;;;;;5074425;28;20714;-78
2023/01/02 01:40:37;;;;;;;17.13;9.82;;;12.20;99.90;;;;;;5055415;28;20232;-76
2023/01/02 01:43:41;;;;;;;21.35;10.90;;;12.20;99.90;;;;;;5074953;28;20231;-78
2023/01/02 01:46:33;;;;;;;17.23;9.80;;;12.20;99.90;;;;;;5079778;28;20226;-78
2023/01/02 01:49:27;;;;;;;14.43;9.05;;;12.20;99.90;;;;;;5064744;28;20220;-76
2023/01/02 01:52:18;;;;;;;16.30;10.32;;;12.30;99.90;;;;;;5062896;28;20220;-77
2023/01/02 01:55:11;;;;;;;17.73;10.45;;;12.30;99.90;;;;;;5080177;28;20218;-78
2023/01/02 01:58:04;;;;;;;19.25;10.85;;;12.30;99.90;;;;;;5062379;28;20694;-79
2023/01/02 02:00:54;;;;;;;18.48;10.00;;;12.30;99.90;;;;;;5063874;28;20233;-78
2023/01/02 02:03:46;;;;;;;16.63;10.05;;;12.20;99.90;;;;;;5059880;28;20234;-78
2023/01/02 02:06:34;;;;;;;21.85;10.20;;;12.20;99.90;;;;;;5062724;28;20230;-78
2023/01/02 02:09:31;;;;;;;17.80;10.82;;;12.20;99.90;;;;;;5067948;28;20997;-77
2023/01/02 02:12:19;;;;;;;20.13;10.60;;;12.30;99.90;;;;;;5077448;28;20230;-78
2023/01/02 02:15:21;;;;;;;17.15;11.00;;;12.30;99.90;;;;;;5073550;28;20304;-78
2023/01/02 02:18:21;;;;;;;18.33;9.90;;;12.30;99.90;;;;;;5079866;28;20219;-78
2023/01/02 02:21:26;;;;;;;16.30;9.93;;;12.20;99.90;;;;;;5079050;28;20587;-77
2023/01/02 02:24:44;;;;;;;19.58;10.98;;;12.20;99.90;;;;;;5073165;28;20230;-77
2023/01/02 02:28:05;;;;;;;19.15;10.55;;;12.20;99.90;;;;;;5071637;28;20223;-78
2023/01/02 02:30:57;;;;;;;17.38;10.07;;;12.20;99.90;;;;;;5071594;28;20729;-77
2023/01/02 02:33:53;;;;;;;20.15;10.63;;;12.20;99.90;;;;;;5055715;28;20223;-79
2023/01/02 02:36:49;;;;;;;19.30;10.95;;;12.20;99.90;;;;;;5049446;28;20223;-78
2023/01/02 02:39:44;;;;;;;17.00;10.32;;;12.20;99.90;;;;;;5076356;28;21040;-79
2023/01/02 02:42:43;;;;;;;16.42;10.45;;;12.20;99.90;;;;;;5072160;28;20643;-76
2023/01/02 02:45:45;;;;;;;18.10;10.55;;;12.20;99.90;;;;;;5073300;28;20224;-77
2023/01/02 02:48:41;;;;;;;20.33;10.40;;;12.20;99.90;;;;;;5052842;28;20311;-77
2023/01/02 02:51:37;;;;;;;20.90;10.48;;;12.10;99.90;;;;;;5058597;28;20232;-77
2023/01/02 02:54:31;;;;;;;19.48;11.02;;;12.10;99.90;;;;;;5073743;28;20236;-77
2023/01/02 02:57:21;;;;;;;16.25;10.30;;;12.10;99.90;;;;;;5063347;28;20327;-77
2023/01/02 03:00:13;;;;;;;21.80;10.50;;;12.10;99.90;;;;;;5074276;28;20215;-77
2023/01/02 03:03:01;;;;;;;18.42;10.95;;;12.10;99.90;;;;;;5055100;28;20598;-78
2023/01/02 03:06:09;;;;;;;16.27;10.65;;;12.10;99.90;;;;;;5053947;28;20703;-77
2023/01/02 03:09:12;;;;;;;20.23;11.13;;;12.10;99.90;;;;;;5055537;28;20735;-77
2023/01/02 03:12:10;;;;;;;20.08;10.77;;;12.10;99.90;;;;;;5057706;28;20345;-77
2023/01/02 03:15:09;;;;;;;17.45;10.93;;;12.10;99.90;;;;;;5059083;28;20231;-77
2023/01/02 03:18:08;;;;;;;18.52;11.27;;;12.00;99.90;;;;;;5055963;28;20224;-77
2023/01/02 03:21:05;;;;;;;20.20;10.82;;;12.00;99.90;;;;;;5052467;28;20285;-77
2023/01/02 03:23:57;;;;;;;18.08;10.90;;;12.00;99.90;;;;;;5057330;28;20220;-78
2023/01/02 03:26:50;;;;;;;19.83;10.95;;;12.00;99.90;;;;;;5055732;28;20231;-78
2023/01/02 03:29:43;;;;;;;18.50;11.48;;;12.00;99.90;;;;;;5064430;28;20216;-76
2023/01/02 03:32:37;;;;;;;18.42;11.13;;;12.00;99.90;;;;;;5054752;28;20220;-76
2023/01/02 03:35:30;;;;;;;22.17;10.80;;;12.00;99.90;;;;;;5048597;28;20239;-76
2023/01/02 03:38:25;;;;;;;21.20;10.82;;;12.00;99.90;;;;;;5063869;28;20228;-77
2023/01/02 03:41:18;;;;;;;20.52;11.02;;;12.00;99.90;;;;;;5059861;28;20224;-77
2023/01/02 03:44:09;;;;;;;18.52;10.57;;;12.00;99.90;;;;;;5053496;28;20219;-76
2023/01/02 03:47:05;;;;;;;18.73;10.75;;;12.00;99.90;;;;;;5055176;28;20216;-77
2023/01/02 03:49:59;;;;;;;17.17;10.10;;;11.90;99.90;;;;;;5059301;28;20212;-77
2023/01/02 03:52:48;;;;;;;17.15;10.68;;;12.00;99.90;;;;;;5062728;28;20778;-77
2023/01/02 03:55:40;;;;;;;19.85;10.77;;;11.90;99.90;;;;;;5057874;28;20220;-76
2023/01/02 03:58:35;;;;;;;19.75;10.48;;;11.90;99.90;;;;;;5058998;28;20230;-77
2023/01/02 04:01:34;;;;;;;16.27;9.88;;;12.00;99.90;;;;;;5058618;28;20890;-78
2023/01/02 04:04:35;;;;;;;16.70;9.95;;;12.00;99.90;;;;;;5062578;28;20225;-77
2023/01/02 04:07:28;;;;;;;19.30;11.02;;;11.90;99.90;;;;;;5061589;28;20216;-78
2023/01/02 04:10:18;;;;;;;14.55;9.68;;;11.90;99.90;;;;;;5040717;28;20217;-77
2023/01/02 04:13:12;;;;;;;17.83;9.82;;;11.90;99.90;;;;;;5061239;28;20216;-77
2023/01/02 04:16:03;;;;;;;19.17;11.20;;;12.00;99.90;;;;;;5048199;28;20348;-77
2023/01/02 04:18:57;;;;;;;18.55;11.02;;;12.00;99.90;;;;;;5068724;28;20231;-78
2023/01/02 04:21:48;;;;;;;17.45;10.32;;;12.00;99.90;;;;;;5081127;28;20223;-77
2023/01/02 04:24:42;;;;;;;16.02;9.88;;;12.00;99.90;;;;;;5080975;28;20226;-77
2023/01/02 04:27:35;;;;;;;16.05;10.35;;;12.00;99.90;;;;;;5080880;28;20681;-81
2023/01/02 04:30:25;;;;;;;19.98;10.38;;;12.00;99.90;;;;;;5083587;28;20219;-81
2023/01/02 04:33:15;;;;;;;17.33;10.57;;;11.90;99.90;;;;;;5062550;28;20423;-81
2023/01/02 04:36:08;;;;;;;15.45;9.93;;;12.00;99.90;;;;;;5065840;28;20293;-82
2023/01/02 04:38:57;;;;;;;18.45;10.88;;;11.90;99.90;;;;;;5075118;28;20224;-86
2023/01/02 04:41:46;;;;;;;14.65;10.05;;;11.90;99.90;;;;;;5070887;28;20235;-77
2023/01/02 04:44:34;;;;;;;18.67;10.25;;;11.90;99.90;;;;;;5063019;28;20273;-78
2023/01/02 04:47:26;;;;;;;15.30;9.95;;;11.90;99.90;;;;;;5051728;28;20217;-82
2023/01/02 04:50:15;;;;;;;17.42;10.93;;;11.90;99.90;;;;;;5063790;28;20234;-81
2023/01/02 04:53:04;;;;;;;19.58;10.57;;;11.80;99.90;;;;;;5063698;28;20212;-82
2023/01/02 04:55:56;;;;;;;20.65;10.93;;;11.80;99.90;;;;;;5059418;28;20235;-79
2023/01/02 04:58:45;;;;;;;21.73;11.10;;;11.70;99.90;;;;;;5078705;28;20356;-78
2023/01/02 05:01:34;;;;;;;16.77;10.95;;;11.70;99.90;;;;;;5074367;28;20222;-77
2023/01/02 05:04:24;;;;;;;16.10;10.05;;;11.70;99.90;;;;;;5055280;28;20718;-79
2023/01/02 05:07:13;;;;;;;17.52;10.88;;;11.70;99.90;;;;;;5069150;28;20223;-78
2023/01/02 05:10:02;;;;;;;19.83;11.13;;;11.70;99.90;;;;;;5061233;28;20235;-78
2023/01/02 05:12:51;;;;;;;18.65;11.00;;;11.70;99.90;;;;;;5063581;28;20219;-78
2023/01/02 05:15:39;;;;;;;20.88;10.90;;;11.70;99.90;;;;;;5064452;28;20708;-78
2023/01/02 05:18:31;;;;;;;18.92;10.20;;;11.80;99.90;;;;;;5056671;28;20314;-78
2023/01/02 05:24:28;;;;;;;18.27;10.70;;;11.80;99.90;;;;;;5067989;28;20824;-77
2023/01/02 05:27:17;;;;;;;15.32;9.73;;;11.70;99.90;;;;;;5054845;28;20224;-78
2023/01/02 05:30:07;;;;;;;17.98;10.65;;;11.60;99.90;;;;;;5075508;28;20877;-78
2023/01/02 05:32:55;;;;;;;20.30;10.38;;;11.70;99.90;;;;;;5079043;28;20229;-77
2023/01/02 05:35:44;;;;;;;16.27;10.20;;;11.60;99.90;;;;;;5064286;28;20893;-78
2023/01/02 05:38:34;;;;;;;16.58;10.23;;;11.70;99.90;;;;;;5076361;28;20219;-78
2023/01/02 05:41:23;;;;;;;20.80;10.82;;;11.70;99.90;;;;;;5045982;28;20231;-78
2023/01/02 05:44:12;;;;;;;19.90;10.18;;;11.70;99.90;;;;;;5067138;28;20212;-77
2023/01/02 05:47:01;;;;;;;17.30;10.95;;;11.60;99.90;;;;;;5061012;28;20619;-77
2023/01/02 05:49:49;;;;;;;21.95;11.07;;;11.70;99.90;;;;;;5078844;28;20224;-76
2023/01/02 05:52:38;;;;;;;17.52;10.05;;;11.60;99.90;;;;;;5080640;28;20228;-76
2023/01/02 05:55:34;;;;;;;18.50;9.90;;;11.60;99.90;;;;;;5080597;28;20255;-77
2023/01/02 05:58:23;;;;;;;20.23;10.73;;;11.60;99.90;;;;;;5079158;28;20224;-77
2023/01/02 06:01:14;;;;;;;18.88;10.10;;;11.60;99.90;;;;;;5064199;28;20212;-77
2023/01/02 06:04:02;;;;;;;15.40;9.95;;;11.40;99.90;;;;;;5054738;28;20223;-77
2023/01/02 06:06:51;;;;;;;17.45;10.73;;;11.50;99.90;;;;;;5069394;28;20224;-77
2023/01/02 06:09:40;;;;;;;17.00;9.68;;;11.40;99.90;;;;;;5065854;28;20234;-78
2023/01/02 06:12:30;;;;;;;14.43;9.85;;;11.50;99.90;;;;;;5071962;28;20732;-79
2023/01/02 06:15:18;;;;;;;19.73;9.98;;;11.40;99.90;;;;;;5068747;28;20258;-78
2023/01/02 06:18:08;;;;;;;16.73;9.60;;;11.40;99.90;;;;;;5074435;28;20234;-77
2023/01/02 06:20:59;;;;;;;18.73;9.80;;;11.30;99.90;;;;;;5062160;28;22474;-78
2023/01/02 06:23:49;;;;;;;17.52;9.98;;;11.20;99.90;;;;;;5077461;28;20306;-77
2023/01/02 06:26:37;;;;;;;17.60;9.93;;;11.20;99.90;;;;;;5066079;28;20223;-77
2023/01/02 06:29:28;;;;;;;18.02;10.30;;;11.10;99.90;;;;;;5068012;28;20728;-77
2023/01/02 06:32:16;;;;;;;15.07;9.45;;;11.10;99.90;;;;;;5063241;28;20220;-78
2023/01/02 06:35:06;;;;;;;15.25;9.85;;;11.10;99.90;;;;;;5065172;28;20220;-78
2023/01/02 06:37:55;;;;;;;17.42;9.15;;;11.10;99.90;;;;;;5076835;28;20211;-77
2023/01/02 06:40:52;;;;;;;18.35;10.05;;;11.00;99.90;;;;;;5069789;28;20231;-77
2023/01/02 06:43:42;;;;;;;15.23;9.48;;;11.00;99.90;;;;;;5076374;28;20220;-77
2023/01/02 06:46:32;;;;;;;19.17;9.65;;;10.80;99.90;;;;;;5035153;28;20221;-77
2023/01/02 06:49:21;;;;;;;16.27;9.80;;;10.90;99.90;;;;;;5051142;28;20231;-78
2023/01/02 06:52:10;;;;;;;13.65;9.32;;;10.90;99.90;;;;;;5043823;28;20217;-77
2023/01/02 06:54:58;;;;;;;14.50;9.63;;;10.80;99.90;;;;;;5042901;28;20521;-77
2023/01/02 06:57:47;;;;;;;23.48;10.20;;;10.80;99.90;;;;;;5023972;28;20263;-77
2023/01/02 07:00:36;;;;;;;17.13;10.25;;;10.90;99.90;;;;;;5021551;28;20233;-77
2023/01/02 07:03:26;;;;;;;14.55;9.55;;;10.80;99.90;;;;;;5028182;28;20233;-77
2023/01/02 07:06:16;;;;;;;15.02;9.30;;;10.80;99.90;;;;;;5023805;28;20691;-76
2023/01/02 07:09:04;;;;;;;20.98;12.55;;;10.70;99.90;;;;;;5032605;28;20248;-77
2023/01/02 07:11:53;;;;;;;18.50;10.90;;;10.70;99.90;;;;;;5030890;28;20297;-77
2023/01/02 07:14:42;;;;;;;17.77;10.48;;;10.60;99.90;;;;;;5025595;28;20229;-77
2023/01/02 07:17:31;;;;;;;15.57;9.68;;;10.70;99.90;;;;;;5007974;28;20391;-76
2023/01/02 07:20:21;;;;;;;15.95;9.25;;;10.70;99.90;;;;;;5043194;28;20802;-77
2023/01/02 07:23:10;;;;;;;15.02;9.25;;;10.70;99.90;;;;;;5042924;28;20252;-77
2023/01/02 07:26:00;;;;;;;14.60;9.65;;;10.70;99.90;;;;;;5040639;28;20229;-77
2023/01/02 07:28:49;;;;;;;13.48;9.05;;;10.80;99.90;;;;;;5037562;28;20220;-77
2023/01/02 07:31:37;;;;;;;17.05;8.85;;;10.70;99.90;;;;;;5043424;28;20220;-78
2023/01/02 07:34:26;;;;;;;14.85;9.35;;;10.70;99.90;;;;;;5050084;28;20229;-77
2023/01/02 07:37:16;;;;;;;13.68;8.90;;;10.80;99.90;;;;;;5023184;28;20279;-78
2023/01/02 07:40:06;;;;;;;15.45;9.38;;;10.80;99.90;;;;;;5028099;28;20232;-77
2023/01/02 07:42:55;;;;;;;14.60;9.05;;;10.80;99.90;;;;;;5032113;28;20231;-78
2023/01/02 07:45:43;;;;;;;14.68;8.55;;;10.70;99.90;;;;;;5042030;28;20232;-78
2023/01/02 07:48:38;;;;;;;14.52;9.55;;;10.80;99.90;;;;;;5041831;28;20221;-78
2023/01/02 07:51:27;;;;;;;12.65;8.48;;;10.80;99.90;;;;;;5018724;28;20216;-78
2023/01/02 07:54:20;;;;;;;14.15;9.10;;;10.80;99.90;;;;;;5061368;28;20223;-78
2023/01/02 07:57:08;;;;;;;14.75;8.35;;;10.90;99.90;;;;;;5061151;28;20212;-78
2023/01/02 07:59:57;;;;;;;15.80;8.70;;;10.90;99.90;;;;;;5042532;28;20232;-79
2023/01/02 08:02:48;;;;;;;16.10;8.88;;;10.90;99.90;;;;;;5050218;28;20308;-78
2023/01/02 08:05:37;;;;;;;15.80;9.63;;;10.90;99.90;;;;;;5045358;28;20905;-78
2023/01/02 08:08:26;;;;;;;14.20;9.15;;;11.00;99.90;;;;;;5056282;28;20216;-77
2023/01/02 08:11:17;;;;;;;16.60;10.10;;;11.00;99.90;;;;;;5058117;28;20224;-79
2023/01/02 08:14:06;;;;;;;14.50;8.88;;;11.10;99.90;;;;;;5045351;28;20252;-78
2023/01/02 08:16:55;;;;;;;16.33;10.00;;;11.10;99.90;;;;;;5062377;28;20233;-78
2023/01/02 08:19:44;;;;;;;18.45;9.43;;;11.00;99.90;;;;;;5061002;28;20289;-78
2023/01/02 08:22:32;;;;;;;19.13;9.90;;;11.10;99.90;;;;;;5057422;28;20232;-78
2023/01/02 08:25:21;;;;;;;15.90;9.82;;;11.10;99.90;;;;;;5047691;28;20223;-79
2023/01/02 08:28:12;;;;;;;16.10;9.75;;;11.20;99.90;;;;;;5045004;28;20216;-78
2023/01/02 08:31:01;;;;;;;15.48;9.52;;;11.20;99.90;;;;;;5061475;28;20235;-78
2023/01/02 08:33:49;;;;;;;19.40;9.93;;;11.30;99.90;;;;;;5056180;28;20219;-79
2023/01/02 08:36:39;;;;;;;17.98;9.75;;;11.20;99.90;;;;;;5060985;28;20235;-78
2023/01/02 08:39:28;;;;;;;20.63;10.43;;;11.20;99.90;;;;;;5060030;28;20230;-78
2023/01/02 08:42:17;;;;;;;19.90;10.90;;;11.30;99.90;;;;;;5043148;28;20220;-77
2023/01/02 08:45:09;;;;;;;14.52;9.70;;;11.40;99.90;;;;;;5058258;28;20239;-77
2023/01/02 08:47:58;;;;;;;15.77;10.25;;;11.40;99.90;;;;;;5060200;28;20747;-78
2023/01/02 08:50:46;;;;;;;23.08;11.15;;;11.50;99.90;;;;;;5060137;28;20607;-78
2023/01/02 08:53:35;;;;;;;21.23;10.23;;;11.60;99.90;;;;;;5049744;28;20220;-77
2023/01/02 08:56:26;;;;;;;19.92;10.45;;;11.60;99.90;;;;;;5061543;28;20227;-77
2023/01/02 08:59:14;;;;;;;18.50;11.00;;;11.70;99.90;;;;;;5057788;28;20220;-77
2023/01/02 09:02:04;;;;;;;22.65;11.15;;;11.70;99.90;;;;;;5062289;28;20599;-77
2023/01/02 09:04:53;;;;;;;19.40;10.63;;;11.80;99.90;;;;;;5046015;28;20722;-78
2023/01/02 09:07:43;;;;;;;22.50;11.00;;;11.60;99.90;;;;;;5056574;28;20224;-77
2023/01/02 09:10:31;;;;;;;19.60;11.13;;;11.60;99.90;;;;;;5057650;28;20362;-81
2023/01/02 09:13:20;;;;;;;17.98;11.52;;;11.60;99.90;;;;;;5053235;28;20224;-78
2023/01/02 09:16:10;;;;;;;16.80;10.43;;;11.50;99.90;;;;;;5060425;28;20250;-78
2023/01/02 09:19:03;;;;;;;19.20;11.70;;;11.50;99.90;;;;;;5045193;28;20224;-78
2023/01/02 09:21:52;;;;;;;20.00;12.35;;;11.50;99.90;;;;;;5053433;28;20239;-78
2023/01/02 09:24:41;;;;;;;19.75;11.20;;;11.50;99.90;;;;;;5038724;28;20216;-77
2023/01/02 09:27:30;;;;;;;20.48;11.85;;;11.50;99.90;;;;;;5052389;28;20226;-77
2023/01/02 09:30:19;;;;;;;20.13;11.55;;;11.60;99.90;;;;;;5041617;28;20220;-78
2023/01/02 09:33:09;;;;;;;22.13;11.90;;;11.60;99.90;;;;;;5060287;28;20311;-77
2023/01/02 09:36:02;;;;;;;16.85;10.88;;;11.60;99.90;;;;;;5060897;28;20231;-77
2023/01/02 09:38:52;;;;;;;21.42;11.27;;;11.60;99.90;;;;;;5061548;28;20746;-77
2023/01/02 09:41:42;;;;;;;19.65;11.35;;;11.70;99.90;;;;;;5057436;28;20224;-77
2023/01/02 09:44:37;;;;;;;15.85;11.27;;;11.70;99.90;;;;;;5060131;28;20242;-78
2023/01/02 09:47:28;;;;;;;20.65;11.55;;;11.80;99.90;;;;;;5032535;28;20576;-79
2023/01/02 09:50:23;;;;;;;20.60;11.52;;;11.80;99.90;;;;;;5050458;28;20220;-76
2023/01/02 09:53:14;;;;;;;17.95;10.70;;;11.80;99.90;;;;;;5038152;28;20217;-78
2023/01/02 09:56:09;;;;;;;19.75;11.80;;;12.00;99.90;;;;;;5051966;28;20228;-79
2023/01/02 09:59:06;;;;;;;20.92;11.35;;;12.00;99.90;;;;;;5044833;28;20229;-79
2023/01/02 10:02:03;;;;;;;20.10;11.50;;;12.00;99.90;;;;;;5046425;28;20737;-79
2023/01/02 10:05:08;;;;;;;18.42;11.30;;;12.10;99.90;;;;;;5051900;28;20229;-79
2023/01/02 10:08:06;;;;;;;20.70;11.70;;;12.10;99.90;;;;;;5033564;28;20247;-78
2023/01/02 10:11:05;;;;;;;18.85;11.80;;;12.10;99.90;;;;;;5044190;28;20228;-77
2023/01/02 10:13:57;;;;;;;19.52;11.90;;;12.10;99.90;;;;;;5038393;28;20895;-77
2023/01/02 10:17:08;;;;;;;24.13;11.50;;;12.10;99.90;;;;;;5051602;28;20341;-78
2023/01/02 10:20:02;;;;;;;19.80;11.18;;;12.30;99.90;;;;;;5053494;28;20879;-78
2023/01/02 10:22:53;;;;;;;20.88;12.27;;;12.30;99.90;;;;;;5058669;28;20610;-79
2023/01/02 10:25:46;;;;;;;23.75;11.63;;;12.40;99.90;;;;;;5036527;28;20239;-78
2023/01/02 10:28:50;;;;;;;21.25;11.10;;;12.40;99.90;;;;;;5036939;28;20220;-78
2023/01/02 10:31:43;;;;;;;18.52;11.05;;;12.50;99.90;;;;;;5060570;28;20231;-77
2023/01/02 10:34:39;;;;;;;21.73;11.82;;;12.50;99.90;;;;;;5046262;28;20220;-78
2023/01/02 10:37:28;;;;;;;18.02;11.32;;;12.60;99.90;;;;;;5058302;28;20231;-78
2023/01/02 10:40:17;;;;;;;18.63;11.35;;;12.50;99.90;;;;;;5041186;28;20221;-78
2023/01/02 10:43:05;;;;;;;21.25;12.75;;;12.60;99.90;;;;;;5039648;28;20782;-78
2023/01/02 10:45:55;;;;;;;21.13;12.18;;;12.70;99.90;;;;;;5020699;28;20312;-78
2023/01/02 10:48:44;;;;;;;19.52;12.35;;;12.70;99.90;;;;;;5037285;28;20223;-78
2023/01/02 10:51:45;;;;;;;20.08;11.25;;;12.70;99.90;;;;;;5051626;28;20722;-77
2023/01/02 10:54:48;;;;;;;17.73;11.13;;;12.70;99.90;;;;;;5056575;28;20746;-79
2023/01/02 10:57:49;;;;;;;18.65;11.75;;;12.80;99.90;;;;;;5046580;28;20308;-78
2023/01/02 11:00:38;;;;;;;19.25;11.15;;;12.80;99.90;;;;;;5040679;28;20382;-78
2023/01/02 11:03:29;;;;;;;18.58;11.18;;;12.90;99.90;;;;;;5045260;28;20228;-77
2023/01/02 11:06:23;;;;;;;16.40;11.15;;;12.90;99.90;;;;;;5060933;28;20325;-77
2023/01/02 11:09:21;;;;;;;20.75;10.60;;;12.90;99.90;;;;;;5055150;28;20691;-77
2023/01/02 11:12:12;;;;;;;18.40;11.30;;;12.90;99.90;;;;;;5061867;28;20231;-77
2023/01/02 11:15:13;;;;;;;20.35;11.15;;;12.90;99.90;;;;;;5020855;28;20505;-78
2023/01/02 11:18:03;;;;;;;16.10;10.50;;;12.90;99.90;;;;;;5052574;28;20228;-77
2023/01/02 11:21:02;;;;;;;18.38;11.23;;;13.00;99.90;;;;;;5053032;28;20229;-79
2023/01/02 11:23:56;;;;;;;16.63;11.07;;;13.00;99.90;;;;;;5052484;28;20274;-79
2023/01/02 11:26:48;;;;;;;16.50;10.90;;;13.00;99.90;;;;;;5038951;28;20228;-77
2023/01/02 11:29:37;;;;;;;20.52;10.70;;;13.00;99.90;;;;;;5049306;28;20216;-79
2023/01/02 11:32:28;;;;;;;22.60;10.93;;;12.90;99.90;;;;;;5040673;28;20238;-80
2023/01/02 11:35:34;;;;;;;17.27;10.27;;;13.00;99.90;;;;;;5040787;28;20224;-80
2023/01/02 11:38:26;;;;;;;19.67;10.65;;;13.00;99.90;;;;;;5052593;28;20765;-78
2023/01/02 11:43:47;;;;;;;19.23;10.52;;;13.00;99.90;;;;;;5033719;28;20236;-77
2023/01/02 11:44:41;;;;;;;15.52;10.70;;;13.00;99.90;;;;;;5037932;28;20323;-80
2023/01/02 11:47:34;;;;;;;21.65;10.73;;;13.00;99.90;;;;;;5036807;28;20351;-77
2023/01/02 11:50:25;;;;;;;23.35;10.68;;;13.10;99.90;;;;;;5050256;28;20220;-77
2023/01/02 11:53:19;;;;;;;18.05;10.63;;;13.00;99.90;;;;;;5031153;28;20235;-78
2023/01/02 11:56:14;;;;;;;18.92;10.65;;;13.10;99.90;;;;;;5056874;28;20670;-77
2023/01/02 11:59:11;;;;;;;19.02;9.88;;;13.00;99.90;;;;;;5060133;28;20231;-76
2023/01/02 12:02:05;;;;;;;18.17;11.07;;;13.10;99.90;;;;;;5040357;28;20279;-77
2023/01/02 12:04:55;;;;;;;16.85;10.43;;;13.10;99.90;;;;;;5048609;28;20242;-77
2023/01/02 12:07:46;;;;;;;18.73;10.43;;;13.10;99.90;;;;;;5042840;28;20221;-78
2023/01/02 12:10:49;;;;;;;20.27;11.52;;;13.10;99.90;;;;;;5051414;28;20228;-77
2023/01/02 12:13:53;;;;;;;20.10;11.18;;;13.20;99.90;;;;;;5056753;28;20609;-77
2023/01/02 12:16:50;;;;;;;17.73;10.35;;;13.20;99.90;;;;;;5062147;28;20235;-78
2023/01/02 12:20:09;;;;;;;19.85;10.93;;;13.20;99.90;;;;;;5058555;28;20231;-78
2023/01/02 12:23:27;;;;;;;21.77;9.93;;;13.20;99.90;;;;;;5039053;28;20227;-77
2023/01/02 12:26:19;;;;;;;18.73;10.68;;;13.30;99.90;;;;;;5039707;28;20216;-78
2023/01/02 12:29:32;;;;;;;20.15;10.45;;;13.30;99.90;;;;;;5036160;28;20217;-78
2023/01/02 12:33:07;;;;;;;19.90;9.98;;;13.40;99.90;;;;;;5016067;28;20359;-76
2023/01/02 12:36:19;;;;;;;18.67;10.15;;;13.40;99.90;;;;;;5056021;28;20237;-88
2023/01/02 12:39:29;;;;;;;19.58;9.77;;;13.50;99.90;;;;;;5042980;28;20221;-90
2023/01/02 12:45:54;;;;;;;16.70;10.23;;;13.50;99.90;;;;;;5032385;28;20999;-78
2023/01/02 12:48:58;;;;;;;18.50;10.25;;;13.50;99.90;;;;;;5040678;28;20552;-78
2023/01/02 12:51:58;;;;;;;18.50;9.60;;;13.50;99.90;;;;;;5044257;28;20225;-79
2023/01/02 12:55:00;;;;;;;14.38;9.40;;;13.50;99.90;;;;;;5050972;28;20650;-78
2023/01/02 12:57:54;;;;;;;17.98;9.55;;;13.50;99.90;;;;;;5040194;28;20228;-78
2023/01/02 13:00:56;;;;;;;17.70;9.77;;;13.60;99.90;;;;;;5029915;28;20232;-78
2023/01/02 13:03:57;;;;;;;17.00;9.35;;;13.60;99.90;;;;;;5054569;28;20219;-81
2023/01/02 13:06:53;;;;;;;16.73;8.52;;;13.60;99.90;;;;;;5050844;28;20266;-79
2023/01/02 13:09:43;;;;;;;26.80;9.23;;;13.70;99.90;;;;;;5053967;28;20220;-81
2023/01/02 13:12:35;;;;;;;14.80;9.68;;;13.70;99.90;;;;;;5036422;28;20711;-80
2023/01/02 13:15:26;;;;;;;15.18;8.00;;;13.70;99.90;;;;;;5048766;28;20561;-80
2023/01/02 13:18:23;;;;;;;16.15;7.68;;;13.80;99.90;;;;;;5054205;28;20481;-88
2023/01/02 13:21:20;;;;;;;12.02;8.48;;;13.80;99.90;;;;;;5052626;28;20248;-79
2023/01/02 13:24:11;;;;;;;13.43;8.48;;;13.90;99.90;;;;;;5040909;28;20235;-84
2023/01/02 13:27:03;;;;;;;14.07;8.43;;;13.90;99.90;;;;;;5047614;28;20235;-81
2023/01/02 13:29:53;;;;;;;14.70;8.20;;;13.90;99.90;;;;;;5026097;28;20228;-80
2023/01/02 13:32:42;;;;;;;14.88;7.78;;;13.90;99.90;;;;;;5034171;28;20220;-81
2023/01/02 13:35:38;;;;;;;17.80;8.77;;;13.90;99.90;;;;;;5049020;28;20247;-81
2023/01/02 13:38:30;;;;;;;17.15;8.23;;;14.00;99.90;;;;;;5050575;28;20228;-80
2023/01/02 13:41:23;;;;;;;12.70;6.93;;;13.90;99.90;;;;;;5038729;28;20616;-91
2023/01/02 13:44:12;;;;;;;13.23;7.68;;;14.00;99.90;;;;;;5044062;28;20227;-85
2023/01/02 13:47:14;;;;;;;12.70;7.65;;;14.00;99.90;;;;;;5041600;28;20651;-94
2023/01/02 13:50:20;;;;;;;14.55;8.38;;;14.00;99.90;;;;;;5031705;28;20688;-86
2023/01/02 13:53:30;;;;;;;12.13;8.50;;;14.00;99.90;;;;;;5058451;28;20224;-86
2023/01/02 13:56:21;;;;;;;12.73;8.30;;;14.00;99.90;;;;;;5040804;28;20235;-86
2023/01/02 13:59:28;;;;;;;13.10;8.27;;;14.00;99.90;;;;;;5048200;28;20453;-86
2023/01/02 14:02:36;;;;;;;16.98;8.60;;;14.00;99.90;;;;;;5032383;28;20232;-91
2023/01/02 14:09:21;;;;;;;13.82;8.10;;;14.00;99.90;;;;;;5050044;28;20254;-82
2023/01/02 14:12:14;;;;;;;16.60;8.18;;;14.00;99.90;;;;;;5034305;28;20695;-87
2023/01/02 14:18:31;;;;;;;17.02;8.32;;;14.00;99.90;;;;;;5042037;28;20205;-88
2023/01/02 14:21:34;;;;;;;13.00;8.93;;;13.90;99.90;;;;;;5046176;28;20728;-91
2023/01/02 14:24:25;;;;;;;15.65;8.35;;;13.90;99.90;;;;;;4963400;28;20220;-80
2023/01/02 14:27:23;;;;;;;18.23;8.63;;;13.80;99.90;;;;;;4933008;28;20232;-80
2023/01/02 14:30:14;;;;;;;14.88;9.18;;;13.80;99.90;;;;;;4954919;28;20347;-79
2023/01/02 14:33:06;;;;;;;17.90;8.70;;;13.80;99.90;;;;;;4944919;28;20791;-78
2023/01/02 14:35:57;;;;;;;16.05;9.05;;;13.80;99.90;;;;;;4940393;28;20275;-78
2023/01/02 14:38:55;;;;;;;16.17;8.73;;;13.80;99.90;;;;;;4953484;28;20432;-79
2023/01/02 14:44:43;;;;;;;15.82;9.10;;;13.80;99.90;;;;;;5065556;27;21146;-80
2023/01/02 14:47:37;;;;;;;15.20;9.30;;;13.70;99.90;;;;;;5070556;28;20216;-79
2023/01/02 14:50:30;;;;;;;16.30;8.85;;;13.70;99.90;;;;;;5050059;28;20227;-82
2023/01/02 14:53:23;;;;;;;15.48;8.43;;;13.70;99.90;;;;;;5052111;28;20212;-81
2023/01/02 14:56:15;;;;;;;15.50;9.45;;;13.70;99.90;;;;;;5062026;28;20223;-82
2023/01/02 14:59:05;;;;;;;20.35;9.32;;;13.60;99.90;;;;;;5071273;28;20220;-81